Time;durP1;ratioP1;P1;durP2;ratioP2;P2;SDS_P1;SDS_P2;PMS_P1;PMS_P2;Temp;Humidity;BMP_temperature;BMP_pressure;BME280_temperature;BME280_humidity;BME280_pressure;Samples;Min_cycle;Max_cycle;Signal;HPM_P1;HPM_P2
2023/01/28 00:00:33;;;;;;;;;35.50;31.25;;;;;4.94;75.28;101096.66;5039120;28;45303;-71
2023/01/28 00:02:58;;;;;;;;;31.75;30.75;;;;;4.94;75.42;101092.38;5038898;28;45378;-73
2023/01/28 00:05:28;;;;;;;;;40.50;35.75;;;;;4.86;75.45;101087.53;5039462;28;45249;-70
2023/01/28 00:07:56;;;;;;;;;40.75;36.25;;;;;4.92;74.78;101093.97;5038812;28;45402;-71
2023/01/28 00:10:21;;;;;;;;;32.75;30.00;;;;;4.93;75.16;101089.66;5037318;28;45297;-73
2023/01/28 00:12:47;;;;;;;;;36.75;33.25;;;;;4.90;75.16;101085.22;5037170;28;45215;-72
2023/01/28 00:15:13;;;;;;;;;36.00;30.75;;;;;4.92;74.75;101087.91;5037006;28;45878;-71
2023/01/28 00:17:38;;;;;;;;;37.00;33.25;;;;;4.92;75.04;101090.50;5018470;28;46306;-70
2023/01/28 00:20:05;;;;;;;;;37.50;31.00;;;;;4.93;74.87;101077.66;5036687;28;45342;-72
2023/01/28 00:22:31;;;;;;;;;33.00;30.50;;;;;4.89;74.99;101073.06;5036983;28;45458;-72
2023/01/28 00:24:56;;;;;;;;;39.75;33.25;;;;;4.74;74.43;101047.13;5037365;28;45594;-74
2023/01/28 00:27:22;;;;;;;;;32.25;29.75;;;;;4.84;75.00;101079.66;5036911;28;45868;-74
2023/01/28 00:29:47;;;;;;;;;37.25;33.75;;;;;4.73;76.15;101080.69;5036795;28;45404;-71
2023/01/28 00:32:13;;;;;;;;;35.75;32.75;;;;;4.73;75.67;101080.69;5037034;28;45662;-74
2023/01/28 00:34:39;;;;;;;;;31.50;28.50;;;;;4.73;75.51;101075.50;5037055;28;45434;-72
2023/01/28 00:37:05;;;;;;;;;28.75;21.75;;;;;4.74;75.92;101083.38;5036467;28;45554;-72
2023/01/28 00:39:30;;;;;;;;;31.50;29.50;;;;;4.73;76.17;101078.09;5036627;28;45529;-73
2023/01/28 00:41:56;;;;;;;;;35.00;32.00;;;;;4.71;75.41;101077.09;5036951;28;45492;-74
2023/01/28 00:44:21;;;;;;;;;39.50;36.75;;;;;4.45;75.94;101031.50;5037078;28;45344;-73
2023/01/28 00:46:47;;;;;;;;;35.50;31.25;;;;;4.72;75.74;101077.22;5036445;28;46005;-72
2023/01/28 00:49:12;;;;;;;;;38.00;33.00;;;;;4.72;75.83;101079.78;5035761;28;45500;-74
2023/01/28 00:51:38;;;;;;;;;35.00;32.75;;;;;4.72;76.06;101076.31;5036699;28;45331;-71
2023/01/28 00:54:04;;;;;;;;;39.25;35.50;;;;;4.75;75.60;101081.66;5036789;28;45387;-71
2023/01/28 00:56:29;;;;;;;;;36.50;34.00;;;;;4.74;75.44;101077.31;5036425;28;46109;-74
2023/01/28 00:58:55;;;;;;;;;39.00;36.50;;;;;4.72;76.17;101073.72;5036583;28;45451;-73
2023/01/28 01:01:23;;;;;;;;;41.00;36.00;;;;;4.71;75.74;101080.56;5036627;28;45475;-74
2023/01/28 01:03:56;;;;;;;;;38.75;34.75;;;;;4.68;76.17;101075.22;5036533;28;45430;-71
2023/01/28 01:06:23;;;;;;;;;40.50;34.75;;;;;4.57;76.28;101061.59;5036031;28;45548;-72
2023/01/28 01:08:49;;;;;;;;;38.25;34.25;;;;;4.72;75.47;101077.22;5018659;28;45580;-72
2023/01/28 01:11:15;;;;;;;;;42.75;39.00;;;;;4.74;75.61;101077.31;5036351;28;45478;-73
2023/01/28 01:13:41;;;;;;;;;50.50;42.00;;;;;4.72;75.41;101076.31;5036463;28;45577;-73
2023/01/28 01:16:17;;;;;;;;;38.50;35.00;;;;;4.75;75.59;101073.91;5036113;28;45489;-71
2023/01/28 01:18:42;;;;;;;;;35.00;32.25;;;;;4.75;75.65;101079.97;5033681;28;45340;-72
2023/01/28 01:21:13;;;;;;;;;35.50;34.50;;;;;4.76;75.48;101067.94;5036220;28;45674;-73
2023/01/28 01:23:39;;;;;;;;;31.50;30.50;;;;;4.78;75.01;101064.63;5036499;28;45577;-72
2023/01/28 01:26:06;;;;;;;;;41.75;35.00;;;;;4.75;74.69;101054.09;5037243;28;45978;-69
2023/01/28 01:28:32;;;;;;;;;65.50;50.25;;;;;4.79;74.73;101060.34;5036194;28;45460;-72
2023/01/28 01:31:00;;;;;;;;;48.75;39.50;;;;;4.81;74.83;101058.75;5034830;28;45511;-71
2023/01/28 01:33:28;;;;;;;;;47.00;41.00;;;;;4.70;74.58;101042.56;5036285;28;45400;-73
2023/01/28 01:35:54;;;;;;;;;44.00;37.25;;;;;4.74;74.21;101057.50;5035996;28;46042;-71
2023/01/28 01:38:20;;;;;;;;;41.00;38.75;;;;;4.79;75.14;101073.28;5035818;28;45260;-73
2023/01/28 01:40:46;;;;;;;;;34.00;31.75;;;;;4.78;74.93;101079.28;5035942;28;45390;-72
2023/01/28 01:43:20;;;;;;;;;31.75;29.00;;;;;4.74;74.95;101069.53;5036365;28;45272;-72
2023/01/28 01:45:54;;;;;;;;;34.00;28.00;;;;;4.74;74.18;101061.78;5035605;28;46104;-70
2023/01/28 01:48:31;;;;;;;;;33.25;30.00;;;;;4.80;74.01;101066.44;5038074;28;45470;-72
2023/01/28 01:51:08;;;;;;;;;37.25;35.75;;;;;4.74;74.45;101066.97;5038178;28;45503;-74
2023/01/28 01:53:36;;;;;;;;;38.25;34.75;;;;;4.72;74.70;101073.72;5035856;28;45320;-72
2023/01/28 01:56:05;;;;;;;;;33.25;32.00;;;;;4.71;74.84;101080.56;5032930;28;45627;-72
2023/01/28 01:58:36;;;;;;;;;30.50;28.75;;;;;4.72;74.44;101073.72;5035294;28;45590;-72
2023/01/28 02:01:02;;;;;;;;;30.25;27.00;;;;;4.73;74.27;101073.81;5032636;28;45269;-73
2023/01/28 02:03:44;;;;;;;;;40.75;31.25;;;;;4.68;74.61;101067.47;5036417;28;45441;-73
2023/01/28 02:06:11;;;;;;;;;31.75;29.25;;;;;4.75;74.50;101066.13;5032822;28;46339;-73
2023/01/28 02:08:36;;;;;;;;;32.75;26.00;;;;;4.74;74.33;101066.97;5035312;28;45435;-72
2023/01/28 02:11:05;;;;;;;;;22.50;20.75;;;;;4.73;74.60;101066.03;5035326;28;45535;-71
2023/01/28 02:13:39;;;;;;;;;33.50;31.00;;;;;4.74;73.97;101062.66;5037233;28;45343;-73
2023/01/28 02:16:06;;;;;;;;;35.25;30.25;;;;;4.71;74.12;101065.06;5036975;28;46803;-70
2023/01/28 02:18:32;;;;;;;;;25.25;23.25;;;;;4.71;74.71;101059.00;5036852;28;45422;-71
2023/01/28 02:21:14;;;;;;;;;21.50;20.00;;;;;4.67;73.87;101052.72;5037292;28;45346;-74
2023/01/28 02:24:18;;;;;;;;;28.25;23.00;;;;;4.72;73.87;101060.78;5037062;28;45415;-71
2023/01/28 02:26:54;;;;;;;;;22.00;21.25;;;;;4.72;73.74;101066.84;5036539;28;45473;-71
2023/01/28 02:29:42;;;;;;;;;26.75;23.50;;;;;4.72;73.62;101058.22;5037228;28;45614;-70
2023/01/28 02:32:24;;;;;;;;;34.25;29.25;;;;;4.44;74.07;101002.16;5036827;28;45382;-72
2023/01/28 02:34:58;;;;;;;;;25.25;21.50;;;;;4.72;73.26;101047.84;5036991;28;45616;-70
2023/01/28 02:37:35;;;;;;;;;27.00;25.00;;;;;4.72;73.36;101058.22;5036514;28;45498;-71
2023/01/28 02:40:08;;;;;;;;;22.00;21.25;;;;;4.71;73.60;101064.16;5036760;28;45517;-70
2023/01/28 02:42:37;;;;;;;;;28.75;26.50;;;;;4.68;73.58;101062.28;5036623;28;45477;-72
2023/01/28 02:45:14;;;;;;;;;30.50;28.25;;;;;4.60;74.46;101068.69;5037047;28;45307;-73
2023/01/28 02:47:58;;;;;;;;;30.75;27.00;;;;;4.48;75.34;101076.56;5037603;28;46091;-71
2023/01/28 02:50:49;;;;;;;;;26.25;23.50;;;;;4.39;74.87;101068.22;5038863;28;45347;-70
2023/01/28 02:53:42;;;;;;;;;26.25;22.50;;;;;4.43;74.04;101070.22;5038022;28;45379;-70
2023/01/28 02:56:40;;;;;;;;;21.00;19.00;;;;;4.43;74.14;101066.72;5018791;28;45317;-71
2023/01/28 02:59:36;;;;;;;;;23.50;22.00;;;;;4.49;74.75;101067.13;5032494;28;45527;-70
2023/01/28 03:02:28;;;;;;;;;16.25;14.75;;;;;4.50;73.93;101072.38;5018354;28;45565;-72
2023/01/28 03:05:19;;;;;;;;;19.25;17.50;;;;;4.53;74.00;101072.56;5035778;28;45481;-71
2023/01/28 03:07:45;;;;;;;;;22.50;19.75;;;;;4.57;73.94;101081.41;5036621;28;45264;-71
2023/01/28 03:10:17;;;;;;;;;17.00;13.50;;;;;4.35;73.48;101038.69;5036323;28;45232;-73
2023/01/28 03:38:51;;;;;;;;;3.25;2.00;;;;;4.31;70.39;101066.84;5039515;28;45466;-73
2023/01/28 03:41:22;;;;;;;;;12.25;10.50;;;;;4.28;70.97;101069.25;5039791;28;45429;-74
2023/01/28 03:43:49;;;;;;;;;11.75;7.25;;;;;4.13;71.71;101043.31;5039321;28;45388;-73
2023/01/28 03:46:14;;;;;;;;;8.50;6.00;;;;;4.27;70.60;101070.03;5039236;28;45747;-74
2023/01/28 03:48:40;;;;;;;;;11.00;10.00;;;;;4.25;70.92;101062.19;5039458;28;45473;-74
2023/01/28 03:51:06;;;;;;;;;10.25;10.25;;;;;4.28;71.15;101067.56;5039647;28;45229;-73
2023/01/28 03:53:31;;;;;;;;;14.00;10.00;;;;;4.31;70.99;101064.25;5039465;28;45950;-74
2023/01/28 03:55:57;;;;;;;;;10.00;10.00;;;;;4.34;70.64;101065.34;5039238;28;45596;-74
2023/01/28 03:58:45;;;;;;;;;10.25;9.25;;;;;4.31;71.24;101074.59;5039147;28;45291;-74
2023/01/28 04:01:11;;;;;;;;;12.75;10.50;;;;;4.02;70.72;101028.78;5039293;28;45521;-74
2023/01/28 04:03:37;;;;;;;;;11.75;10.00;;;;;4.36;71.21;101086.16;5038888;28;46060;-74
2023/01/28 04:06:05;;;;;;;;;10.50;9.25;;;;;4.26;70.69;101073.41;5039245;28;45807;-74
2023/01/28 04:08:30;;;;;;;;;13.00;11.00;;;;;4.37;70.59;101083.63;5039687;28;46035;-74
2023/01/28 04:10:56;;;;;;;;;9.75;9.00;;;;;4.42;70.66;101075.28;5039261;28;45341;-72
2023/01/28 04:13:22;;;;;;;;;15.00;12.75;;;;;4.37;70.32;101081.06;5038988;28;45934;-73
2023/01/28 04:15:48;;;;;;;;;10.25;6.75;;;;;4.37;70.16;101082.75;5038662;28;45520;-74
2023/01/28 04:18:13;;;;;;;;;9.75;9.00;;;;;4.11;70.89;101056.13;5038796;28;45473;-74
2023/01/28 04:20:39;;;;;;;;;9.75;9.00;;;;;4.26;70.89;101082.09;5038712;28;45498;-74
2023/01/28 04:23:06;;;;;;;;;13.25;9.75;;;;;4.28;71.54;101080.50;5039026;28;46211;-74
2023/01/28 04:25:33;;;;;;;;;9.50;9.25;;;;;4.26;71.51;101081.16;5038292;28;45493;-74
2023/01/28 04:27:59;;;;;;;;;12.00;10.00;;;;;4.29;70.97;101081.38;5038486;28;45378;-74
2023/01/28 04:30:24;;;;;;;;;13.00;9.75;;;;;4.22;71.37;101081.78;5038528;28;45499;-74
2023/01/28 04:32:50;;;;;;;;;12.00;9.00;;;;;4.23;71.38;101081.00;5038361;28;46093;-74
2023/01/28 04:35:16;;;;;;;;;12.50;10.00;;;;;4.11;71.33;101056.13;5038297;28;45457;-74
2023/01/28 04:37:42;;;;;;;;;8.50;8.50;;;;;4.17;71.35;101072.03;5038632;28;45350;-73
2023/01/28 04:40:09;;;;;;;;;9.75;9.75;;;;;4.14;72.07;101083.91;5039202;28;46064;-73
2023/01/28 04:42:34;;;;;;;;;11.25;9.00;;;;;4.18;71.84;101080.72;5038657;28;46044;-74
2023/01/28 04:45:00;;;;;;;;;9.50;9.00;;;;;4.18;71.41;101084.19;5038101;28;45390;-74
2023/01/28 04:47:26;;;;;;;;;10.50;10.25;;;;;4.09;71.42;101072.34;5038534;28;45222;-74
2023/01/28 04:49:51;;;;;;;;;4.75;3.25;;;;;4.17;71.93;101089.25;5038391;28;45414;-74
2023/01/28 04:52:16;;;;;;;;;8.75;7.25;;;;;4.13;71.74;101100.19;5038423;28;46109;-73
2023/01/28 04:54:43;;;;;;;;;10.00;10.00;;;;;4.13;72.21;101103.66;5038333;28;45250;-74
2023/01/28 04:57:08;;;;;;;;;11.00;10.00;;;;;4.07;71.33;101100.69;5038569;28;45313;-73
2023/01/28 04:59:34;;;;;;;;;11.25;9.25;;;;;4.08;72.01;101117.09;5038532;28;45462;-74
2023/01/28 05:01:59;;;;;;;;;12.25;9.75;;;;;4.02;72.33;101108.94;5036857;28;46240;-72
2023/01/28 05:04:25;;;;;;;;;10.75;10.00;;;;;3.96;72.40;101117.22;5038250;28;45321;-74
2023/01/28 05:06:50;;;;;;;;;14.00;11.00;;;;;3.84;72.97;101101.78;5038242;28;45461;-74
2023/01/28 05:09:16;;;;;;;;;9.25;9.25;;;;;3.97;72.87;101113.81;5038414;28;45351;-75
2023/01/28 05:11:41;;;;;;;;;13.75;11.50;;;;;3.98;72.93;101113.91;5038156;28;46227;-72
2023/01/28 05:14:07;;;;;;;;;12.50;10.50;;;;;3.93;73.83;101117.88;5038135;28;45437;-72
2023/01/28 05:16:33;;;;;;;;;12.00;11.75;;;;;3.59;73.55;101057.91;5038033;28;45343;-73
2023/01/28 05:19:00;;;;;;;;;14.75;11.25;;;;;3.79;73.62;101085.06;5038052;28;45484;-72
2023/01/28 05:21:26;;;;;;;;;12.00;12.00;;;;;4.04;73.30;101117.69;5037802;28;45454;-73
2023/01/28 05:23:51;;;;;;;;;15.25;12.75;;;;;4.04;73.73;101121.19;5037802;28;45479;-73
2023/01/28 05:26:17;;;;;;;;;13.50;12.00;;;;;3.79;73.29;101078.19;5037848;28;45252;-70
2023/01/28 05:28:42;;;;;;;;;11.50;9.50;;;;;4.09;73.57;101130.13;5037908;28;45408;-70
2023/01/28 05:31:09;;;;;;;;;13.00;11.25;;;;;3.75;73.41;101073.63;5037979;28;46174;-70
2023/01/28 05:33:35;;;;;;;;;11.25;10.00;;;;;4.12;73.22;101134.63;5037681;28;45424;-70
2023/01/28 05:36:01;;;;;;;;;9.50;9.25;;;;;4.16;73.29;101137.50;5037549;28;45177;-71
2023/01/28 05:38:26;;;;;;;;;12.25;9.50;;;;;3.95;73.14;101100.78;5037869;28;45414;-71
2023/01/28 05:40:52;;;;;;;;;14.00;11.75;;;;;4.15;73.26;101138.25;5037621;28;45774;-72
2023/01/28 05:43:17;;;;;;;;;12.75;10.25;;;;;4.21;73.65;101140.38;5037350;28;45423;-73
2023/01/28 05:45:43;;;;;;;;;13.75;11.25;;;;;4.24;72.69;101140.56;5037581;28;45358;-74
2023/01/28 05:48:08;;;;;;;;;11.25;11.00;;;;;4.29;72.92;101143.44;5037752;28;45523;-74
2023/01/28 05:50:34;;;;;;;;;14.75;13.00;;;;;4.25;73.21;101144.94;5037264;28;46133;-74
2023/01/28 05:52:59;;;;;;;;;14.00;13.25;;;;;4.27;73.24;101153.69;5037461;28;45449;-74
2023/01/28 05:55:25;;;;;;;;;11.50;11.25;;;;;4.16;73.29;101124.56;5037626;28;45224;-74
2023/01/28 05:57:51;;;;;;;;;10.50;10.25;;;;;4.40;73.02;101150.22;5037524;28;45391;-74
2023/01/28 06:00:17;;;;;;;;;13.50;12.50;;;;;4.41;72.55;101148.53;5037289;28;45883;-74
2023/01/28 06:02:42;;;;;;;;;16.75;12.75;;;;;4.42;72.52;101153.81;5037409;28;45686;-72
2023/01/28 06:05:09;;;;;;;;;10.25;10.25;;;;;4.28;72.88;101127.03;5037651;28;45409;-74
2023/01/28 06:07:34;;;;;;;;;13.75;13.50;;;;;4.26;72.31;101114.78;5037576;28;45547;-73
2023/01/28 06:10:00;;;;;;;;;10.25;10.25;;;;;4.49;72.14;101144.72;5037093;28;45390;-71
2023/01/28 06:12:26;;;;;;;;;12.75;10.00;;;;;4.49;72.75;101145.63;5037133;28;45251;-71
2023/01/28 06:14:51;;;;;;;;;13.50;12.50;;;;;4.52;72.02;101144.94;5037249;28;45540;-72
2023/01/28 06:17:17;;;;;;;;;12.50;10.25;;;;;4.51;71.67;101146.59;5037222;28;45451;-71
2023/01/28 06:19:42;;;;;;;;;18.75;18.00;;;;;4.55;71.66;101152.88;5037276;28;46166;-71
2023/01/28 06:22:09;;;;;;;;;30.75;22.75;;;;;4.56;71.81;101160.75;5037237;28;45316;-71
2023/01/28 06:24:34;;;;;;;;;22.50;21.50;;;;;4.56;71.62;101160.75;5037109;28;45359;-71
2023/01/28 06:27:00;;;;;;;;;15.50;14.00;;;;;4.40;71.60;101126.94;5035529;28;45461;-71
2023/01/28 06:29:26;;;;;;;;;16.25;13.50;;;;;4.37;71.79;101121.56;5036021;28;45439;-70
2023/01/28 06:31:51;;;;;;;;;18.50;15.50;;;;;4.58;71.69;101166.91;5036036;28;45480;-71
2023/01/28 06:34:17;;;;;;;;;25.25;23.50;;;;;4.57;71.56;101159.94;5034688;28;45550;-71
2023/01/28 06:36:42;;;;;;;;;14.75;11.00;;;;;4.49;71.12;101147.31;5036370;28;45440;-71
2023/01/28 06:39:08;;;;;;;;;13.00;12.00;;;;;4.42;71.39;101127.00;5035599;28;45454;-71
2023/01/28 06:41:34;;;;;;;;;11.00;9.75;;;;;4.54;71.32;101157.16;5035788;28;45768;-70
2023/01/28 06:43:59;;;;;;;;;22.00;17.00;;;;;4.65;71.38;101178.53;5036544;28;45276;-69
2023/01/28 06:46:25;;;;;;;;;21.25;17.00;;;;;4.71;71.38;101181.50;5036424;28;45379;-70
2023/01/28 06:48:50;;;;;;;;;14.50;13.50;;;;;4.60;71.83;101167.03;5039002;28;45627;-69
2023/01/28 06:51:16;;;;;;;;;14.00;13.25;;;;;4.70;72.06;101181.44;5039718;28;45395;-69
2023/01/28 06:53:42;;;;;;;;;12.00;10.00;;;;;4.54;71.83;101157.16;5040979;28;45505;-70
2023/01/28 06:56:08;;;;;;;;;14.25;11.25;;;;;4.70;72.10;101178.84;5039888;28;45399;-69
2023/01/28 06:58:34;;;;;;;;;11.25;9.25;;;;;4.73;72.02;101187.69;5039169;28;46073;-69
2023/01/28 07:01:00;;;;;;;;;14.00;11.75;;;;;4.69;71.57;101190.00;5022284;28;45384;-69
2023/01/28 07:03:25;;;;;;;;;14.50;11.75;;;;;4.70;72.18;101186.63;5040593;28;45448;-70
2023/01/28 07:05:51;;;;;;;;;20.25;18.00;;;;;4.61;72.01;101180.84;5040734;28;45388;-71
2023/01/28 07:08:20;;;;;;;;;14.00;11.00;;;;;4.71;72.41;101207.41;5042230;28;46041;-72
2023/01/28 07:10:46;;;;;;;;;19.50;17.75;;;;;4.45;72.09;101172.09;5022884;28;45527;-72
2023/01/28 07:13:11;;;;;;;;;43.00;35.00;;;;;4.70;71.92;101215.97;5040371;28;45468;-73
2023/01/28 07:15:37;;;;;;;;;47.00;42.00;;;;;4.69;71.56;101211.59;5040769;28;45533;-72
2023/01/28 07:18:03;;;;;;;;;15.25;13.75;;;;;4.41;71.44;101169.22;5041498;28;45473;-72
2023/01/28 07:20:28;;;;;;;;;14.50;13.00;;;;;4.65;71.97;101226.81;5040686;28;45352;-71
2023/01/28 07:22:54;;;;;;;;;22.00;20.75;;;;;3.92;72.10;101118.69;5041561;28;45433;-71
2023/01/28 07:25:19;;;;;;;;;21.25;19.25;;;;;4.18;72.74;101187.63;5040119;28;45480;-71
2023/01/28 07:27:50;;;;;;;;;21.25;20.00;;;;;4.45;73.08;101241.06;5039635;28;46170;-71
2023/01/28 07:30:17;;;;;;;;;16.00;15.25;;;;;4.41;72.74;101236.47;5040629;28;45408;-70
2023/01/28 07:32:43;;;;;;;;;14.25;14.25;;;;;4.39;72.91;101246.72;5040261;28;45420;-71
2023/01/28 07:35:09;;;;;;;;;19.75;17.00;;;;;4.43;72.50;101242.66;5039997;28;45316;-71
2023/01/28 07:37:35;;;;;;;;;14.25;12.50;;;;;4.48;72.67;101249.03;5022746;28;46220;-71
2023/01/28 07:40:00;;;;;;;;;13.50;12.00;;;;;4.43;72.19;101238.34;5038291;28;45546;-71
2023/01/28 07:42:26;;;;;;;;;15.25;14.00;;;;;4.46;72.12;101243.75;5039930;28;45438;-71
2023/01/28 07:44:51;;;;;;;;;18.50;14.25;;;;;4.52;72.21;101251.03;5039953;28;45387;-71
2023/01/28 07:47:18;;;;;;;;;19.50;18.00;;;;;4.49;72.29;101249.09;5040852;28;45528;-71
2023/01/28 07:49:44;;;;;;;;;20.75;17.00;;;;;4.45;72.66;101254.88;5038575;28;45482;-71
2023/01/28 07:52:09;;;;;;;;;15.75;13.25;;;;;4.44;72.70;101255.69;5039024;28;45474;-71
2023/01/28 07:54:35;;;;;;;;;17.25;15.50;;;;;4.48;72.37;101251.63;5039361;28;45447;-71
2023/01/28 07:57:00;;;;;;;;;17.25;17.00;;;;;4.41;72.56;101262.34;5038825;28;45462;-71
2023/01/28 07:59:26;;;;;;;;;22.75;21.00;;;;;4.42;72.33;101259.88;5037538;28;45566;-71
2023/01/28 08:01:53;;;;;;;;;21.75;20.75;;;;;4.38;72.72;101258.75;5039111;28;45212;-70
2023/01/28 08:04:18;;;;;;;;;21.50;21.00;;;;;4.48;72.06;101259.38;5040399;28;45507;-70
2023/01/28 08:06:44;;;;;;;;;11.25;11.25;;;;;4.50;71.34;101268.13;5039130;28;46180;-70
2023/01/28 08:09:09;;;;;;;;;17.00;14.00;;;;;4.37;70.62;101258.66;5038642;28;45445;-72
2023/01/28 08:11:38;;;;;;;;;15.00;15.00;;;;;4.44;70.61;101275.50;5037547;28;45488;-70
2023/01/28 08:14:03;;;;;;;;;15.25;14.00;;;;;4.39;70.38;101276.06;5037335;28;45305;-69
2023/01/28 08:16:30;;;;;;;;;20.50;18.50;;;;;4.41;70.15;101291.69;5037218;28;45370;-70
2023/01/28 08:18:56;;;;;;;;;17.00;16.00;;;;;4.44;70.91;101293.59;5033992;28;45505;-70
2023/01/28 08:21:21;;;;;;;;;16.75;13.00;;;;;4.41;70.50;101288.22;5036780;28;45407;-71
2023/01/28 08:23:47;;;;;;;;;12.75;10.50;;;;;4.42;69.74;101293.50;5038104;28;45516;-70
2023/01/28 08:26:13;;;;;;;;;17.25;15.75;;;;;4.18;69.80;101260.03;5037789;28;46013;-71
2023/01/28 08:28:38;;;;;;;;;18.00;13.75;;;;;4.35;69.13;101299.03;5037677;28;45585;-73
2023/01/28 08:31:04;;;;;;;;;35.75;33.00;;;;;4.35;69.57;101299.03;5037970;28;45419;-72
2023/01/28 08:33:30;;;;;;;;;26.50;24.50;;;;;4.22;69.67;101271.47;5037479;28;45469;-70
2023/01/28 08:35:55;;;;;;;;;21.75;20.50;;;;;4.04;68.89;101240.09;5034157;28;45916;-72
2023/01/28 08:38:21;;;;;;;;;26.00;22.00;;;;;4.27;69.82;101280.41;5036998;28;45846;-70
2023/01/28 08:40:49;;;;;;;;;27.50;26.25;;;;;4.51;70.07;101316.50;5037324;28;45551;-68
2023/01/28 08:43:15;;;;;;;;;20.00;16.75;;;;;4.48;69.60;101317.19;5036880;28;45481;-69
2023/01/28 08:45:41;;;;;;;;;17.00;15.25;;;;;4.48;69.24;101319.78;5036686;28;46404;-74
2023/01/28 08:48:13;;;;;;;;;19.25;15.25;;;;;4.56;69.21;101326.34;5036502;28;45428;-72
2023/01/28 08:50:39;;;;;;;;;25.00;22.50;;;;;4.63;69.70;101331.94;5037582;28;45378;-73
2023/01/28 08:53:19;;;;;;;;;21.50;18.00;;;;;4.68;68.25;101330.56;5037304;28;45457;-72
2023/01/28 08:55:46;;;;;;;;;14.75;14.25;;;;;4.65;68.51;101326.06;5036191;28;45415;-72
2023/01/28 08:58:13;;;;;;;;;11.00;10.50;;;;;4.72;68.30;101337.72;5037089;28;45582;-71
2023/01/28 09:00:39;;;;;;;;;15.75;13.75;;;;;4.76;68.08;101339.72;5037331;28;45363;-71
2023/01/28 09:03:05;;;;;;;;;15.00;14.00;;;;;4.77;67.80;101334.66;5037449;28;45230;-71
2023/01/28 09:05:32;;;;;;;;;16.25;14.75;;;;;4.86;67.85;101339.53;5036818;28;45414;-71
2023/01/28 09:08:03;;;;;;;;;17.00;15.50;;;;;4.86;67.55;101334.34;5037189;28;45522;-69
2023/01/28 09:10:29;;;;;;;;;19.50;16.25;;;;;4.90;67.25;101351.88;5036813;28;45445;-69
2023/01/28 09:12:54;;;;;;;;;11.50;10.25;;;;;4.76;66.43;101321.59;5037289;28;45592;-75
2023/01/28 09:15:20;;;;;;;;;10.75;10.00;;;;;4.95;66.38;101347.91;5036891;28;45926;-71
2023/01/28 09:17:46;;;;;;;;;13.75;11.50;;;;;4.85;66.74;101326.47;5035674;28;45343;-70
2023/01/28 09:20:12;;;;;;;;;15.25;15.25;;;;;4.83;66.66;101320.31;5036890;28;45477;-71
2023/01/28 09:22:38;;;;;;;;;19.00;14.25;;;;;5.01;65.70;101347.38;5037297;28;45625;-71
2023/01/28 09:25:04;;;;;;;;;18.75;15.75;;;;;4.98;66.12;101353.28;5037124;28;45415;-72
2023/01/28 09:27:30;;;;;;;;;18.25;15.50;;;;;4.69;66.11;101302.16;5037180;28;45490;-72
2023/01/28 09:29:56;;;;;;;;;41.25;33.25;;;;;5.04;66.53;101359.66;5037943;28;45351;-72
2023/01/28 09:32:23;;;;;;;;;24.25;21.50;;;;;5.01;65.41;101342.22;5037980;28;45330;-72
2023/01/28 09:34:48;;;;;;;;;24.75;22.25;;;;;5.05;65.37;101348.50;5037711;28;45521;-72
2023/01/28 09:37:14;;;;;;;;;27.75;24.50;;;;;5.04;65.36;101346.72;5037547;28;45369;-71
2023/01/28 09:39:39;;;;;;;;;19.00;17.50;;;;;4.96;65.33;101339.31;5037100;28;45466;-71
2023/01/28 09:42:33;;;;;;;;;11.00;10.50;;;;;5.01;65.25;101349.97;5037579;28;45534;-71
2023/01/28 09:45:14;;;;;;;;;12.25;10.75;;;;;5.02;65.32;101349.19;5037376;28;45378;-70
2023/01/28 09:47:55;;;;;;;;;15.75;13.75;;;;;5.01;65.88;101356.84;5037192;28;45356;-71
2023/01/28 09:50:32;;;;;;;;;16.75;15.75;;;;;5.00;65.36;101355.06;5037080;28;45497;-71
2023/01/28 09:53:27;;;;;;;;;15.75;14.25;;;;;4.95;64.58;101352.16;5037334;28;45430;-70
2023/01/28 09:56:19;;;;;;;;;14.25;14.25;;;;;5.00;64.09;101368.03;5036962;28;45565;-71
2023/01/28 09:58:45;;;;;;;;;14.25;14.00;;;;;4.97;64.08;101364.44;5036699;28;46334;-72
2023/01/28 10:01:28;;;;;;;;;16.00;15.75;;;;;4.92;64.60;101355.47;5036881;28;45497;-71
2023/01/28 10:04:21;;;;;;;;;18.50;14.50;;;;;4.76;63.63;101337.13;5037020;28;45333;-71
2023/01/28 10:07:32;;;;;;;;;15.75;15.00;;;;;4.87;64.14;101368.91;5035327;28;46398;-70
2023/01/28 10:10:14;;;;;;;;;16.25;14.75;;;;;4.72;64.37;101348.09;5033605;28;45534;-71
2023/01/28 10:13:15;;;;;;;;;19.50;18.75;;;;;4.91;64.40;101373.47;5036530;28;45289;-72
2023/01/28 10:16:05;;;;;;;;;27.75;23.50;;;;;4.98;64.19;101373.97;5003027;28;45494;-72
2023/01/28 10:18:49;;;;;;;;;17.50;16.25;;;;;4.96;63.33;101370.41;5036513;28;45493;-71
2023/01/28 10:21:27;;;;;;;;;19.00;18.25;;;;;5.07;63.31;101385.75;5036310;28;45462;-71
2023/01/28 10:23:59;;;;;;;;;21.50;18.50;;;;;5.06;63.49;101379.66;5035431;28;45440;-73
2023/01/28 10:26:32;;;;;;;;;22.75;19.00;;;;;5.04;63.42;101385.56;5037046;28;45562;-72
2023/01/28 10:29:03;;;;;;;;;19.25;18.00;;;;;5.09;63.86;101384.16;5036603;28;45533;-73
2023/01/28 10:31:39;;;;;;;;;14.50;13.75;;;;;5.02;63.05;101356.06;5036620;28;45374;-71
2023/01/28 10:34:05;;;;;;;;;16.25;14.75;;;;;5.03;63.27;101357.84;5037462;28;45460;-76
2023/01/28 10:36:30;;;;;;;;;18.25;16.25;;;;;5.14;62.58;101377.59;5036869;28;45538;-71
2023/01/28 10:38:56;;;;;;;;;16.75;15.25;;;;;5.03;62.71;101373.38;5036500;28;46120;-70
2023/01/28 10:41:25;;;;;;;;;21.75;18.00;;;;;5.04;62.10;101382.97;5036541;28;45500;-71
2023/01/28 10:43:51;;;;;;;;;21.00;17.75;;;;;5.02;62.04;101374.19;5036967;28;45410;-72
2023/01/28 10:46:29;;;;;;;;;16.75;15.25;;;;;4.93;62.16;101371.88;5036701;28;45464;-72
2023/01/28 10:49:15;;;;;;;;;15.00;12.00;;;;;4.89;62.17;101367.31;5018674;28;46374;-72
2023/01/28 10:51:42;;;;;;;;;13.75;12.25;;;;;4.88;62.34;101362.94;5036264;28;45473;-72
2023/01/28 10:54:23;;;;;;;;;14.50;14.25;;;;;4.86;62.84;101365.41;5036368;28;45540;-72
2023/01/28 10:56:56;;;;;;;;;17.00;13.75;;;;;4.84;63.09;101366.13;5036513;28;45829;-72
2023/01/28 10:59:28;;;;;;;;;17.75;15.00;;;;;4.81;62.38;101355.56;5036544;28;46340;-73
2023/01/28 11:02:36;;;;;;;;;20.00;16.25;;;;;4.72;63.05;101363.63;5034204;28;45400;-72
2023/01/28 11:05:24;;;;;;;;;15.25;13.50;;;;;4.70;63.22;101366.09;5005788;28;45486;-70
2023/01/28 11:07:50;;;;;;;;;17.00;16.00;;;;;4.74;62.99;101362.91;5035650;28;45421;-71
2023/01/28 11:10:36;;;;;;;;;14.75;14.50;;;;;4.53;63.49;101318.38;5034636;28;46477;-73
2023/01/28 11:13:04;;;;;;;;;15.25;13.75;;;;;4.75;63.23;101353.44;5035445;28;45418;-75
2023/01/28 11:15:31;;;;;;;;;15.00;13.75;;;;;4.73;63.17;101352.44;5034647;28;45781;-72
2023/01/28 11:18:05;;;;;;;;;16.50;14.25;;;;;4.66;63.28;101352.84;5033110;28;45546;-71
2023/01/28 11:20:37;;;;;;;;;19.50;17.25;;;;;4.72;63.55;101345.50;5035737;28;46073;-72
2023/01/28 11:23:02;;;;;;;;;23.00;21.50;;;;;4.77;63.72;101347.59;5035845;28;45531;-76
2023/01/28 11:25:36;;;;;;;;;26.50;24.50;;;;;4.49;63.55;101287.91;5036381;28;45480;-76
2023/01/28 11:28:07;;;;;;;;;26.00;24.00;;;;;4.88;64.02;101339.63;5018276;28;45505;-73
2023/01/28 11:30:39;;;;;;;;;18.00;15.75;;;;;4.94;64.04;101335.75;5034071;28;45685;-71
2023/01/28 11:33:18;;;;;;;;;20.25;19.25;;;;;5.02;63.67;101337.94;5035533;28;45536;-71
2023/01/28 11:36:04;;;;;;;;;20.00;18.00;;;;;5.06;63.75;101334.75;5039160;28;45308;-70
2023/01/28 11:38:30;;;;;;;;;19.75;18.00;;;;;5.05;62.78;101328.66;5039076;28;45490;-72
2023/01/28 11:40:59;;;;;;;;;19.00;19.00;;;;;4.85;62.99;101309.25;5039257;28;46163;-72
2023/01/28 11:43:30;;;;;;;;;19.75;16.75;;;;;4.97;63.36;101328.19;5039192;28;45334;-72
2023/01/28 11:46:10;;;;;;;;;17.50;17.50;;;;;5.02;63.38;101322.41;5039211;28;45427;-74
2023/01/28 11:48:51;;;;;;;;;20.00;17.00;;;;;5.07;63.06;101314.13;5039440;28;45484;-71
2023/01/28 11:51:44;;;;;;;;;18.75;17.00;;;;;5.08;63.13;101308.16;5039292;28;46318;-70
2023/01/28 11:54:21;;;;;;;;;19.00;17.00;;;;;5.11;63.04;101307.44;5038866;28;45426;-71
2023/01/28 11:57:03;;;;;;;;;21.75;18.75;;;;;4.82;63.45;101262.47;5038886;28;45514;-72